sensor_id;sensor_type;location;lat;lon;timestamp;P1;durP1;ratioP1;P2;durP2;ratioP2
69325;SDS011;56471;53.508;49.252;2022-11-20T00:01:29;2.08;;;1.30;;
69325;SDS011;56471;53.508;49.252;2022-11-20T00:03:55;1.75;;;1.50;;
69325;SDS011;56471;53.508;49.252;2022-11-20T00:06:23;1.73;;;1.40;;
69325;SDS011;56471;53.508;49.252;2022-11-20T00:08:49;1.60;;;1.40;;
69325;SDS011;56471;53.508;49.252;2022-11-20T00:11:18;2.10;;;1.50;;
69325;SDS011;56471;53.508;49.252;2022-11-20T00:13:46;1.63;;;1.35;;
69325;SDS011;56471;53.508;49.252;2022-11-20T00:16:13;1.58;;;1.40;;
69325;SDS011;56471;53.508;49.252;2022-11-20T00:18:40;1.90;;;1.60;;
69325;SDS011;56471;53.508;49.252;2022-11-20T00:21:11;2.17;;;1.55;;
69325;SDS011;56471;53.508;49.252;2022-11-20T00:23:47;1.70;;;1.55;;
69325;SDS011;56471;53.508;49.252;2022-11-20T00:26:16;2.17;;;1.60;;
69325;SDS011;56471;53.508;49.252;2022-11-20T00:28:43;1.70;;;1.40;;
69325;SDS011;56471;53.508;49.252;2022-11-20T00:31:13;1.50;;;1.40;;
69325;SDS011;56471;53.508;49.252;2022-11-20T00:33:40;1.63;;;1.45;;
69325;SDS011;56471;53.508;49.252;2022-11-20T00:36:10;1.67;;;1.30;;
69325;SDS011;56471;53.508;49.252;2022-11-20T00:38:37;1.25;;;1.13;;
69325;SDS011;56471;53.508;49.252;2022-11-20T00:41:04;1.55;;;1.40;;
69325;SDS011;56471;53.508;49.252;2022-11-20T00:43:31;1.55;;;1.40;;
69325;SDS011;56471;53.508;49.252;2022-11-20T00:46:02;1.58;;;1.48;;
69325;SDS011;56471;53.508;49.252;2022-11-20T00:48:29;1.50;;;1.40;;
69325;SDS011;56471;53.508;49.252;2022-11-20T00:50:57;2.17;;;1.45;;
69325;SDS011;56471;53.508;49.252;2022-11-20T00:53:23;1.50;;;1.38;;
69325;SDS011;56471;53.508;49.252;2022-11-20T00:55:53;1.30;;;1.20;;
69325;SDS011;56471;53.508;49.252;2022-11-20T00:58:23;1.40;;;1.30;;
69325;SDS011;56471;53.508;49.252;2022-11-20T01:00:50;1.48;;;1.30;;
69325;SDS011;56471;53.508;49.252;2022-11-20T01:03:16;1.45;;;1.35;;
69325;SDS011;56471;53.508;49.252;2022-11-20T01:05:43;1.23;;;1.13;;
69325;SDS011;56471;53.508;49.252;2022-11-20T01:08:09;1.30;;;1.20;;
69325;SDS011;56471;53.508;49.252;2022-11-20T01:10:35;1.73;;;1.30;;
69325;SDS011;56471;53.508;49.252;2022-11-20T01:13:01;1.52;;;1.42;;
69325;SDS011;56471;53.508;49.252;2022-11-20T01:15:45;1.40;;;1.30;;
69325;SDS011;56471;53.508;49.252;2022-11-20T01:18:11;1.60;;;1.40;;
69325;SDS011;56471;53.508;49.252;2022-11-20T01:20:37;1.58;;;1.40;;
69325;SDS011;56471;53.508;49.252;2022-11-20T01:23:03;1.60;;;1.38;;
69325;SDS011;56471;53.508;49.252;2022-11-20T01:25:29;1.60;;;1.40;;
69325;SDS011;56471;53.508;49.252;2022-11-20T01:27:55;1.77;;;1.60;;
69325;SDS011;56471;53.508;49.252;2022-11-20T01:30:20;1.65;;;1.42;;
69325;SDS011;56471;53.508;49.252;2022-11-20T01:32:46;1.70;;;1.42;;
69325;SDS011;56471;53.508;49.252;2022-11-20T01:35:12;1.73;;;1.52;;
69325;SDS011;56471;53.508;49.252;2022-11-20T01:37:37;1.55;;;1.45;;
69325;SDS011;56471;53.508;49.252;2022-11-20T01:40:03;2.17;;;1.50;;
69325;SDS011;56471;53.508;49.252;2022-11-20T01:42:29;1.73;;;1.58;;
69325;SDS011;56471;53.508;49.252;2022-11-20T01:48:14;2.15;;;1.40;;
69325;SDS011;56471;53.508;49.252;2022-11-20T01:50:40;1.60;;;1.50;;
69325;SDS011;56471;53.508;49.252;2022-11-20T01:53:08;1.80;;;1.45;;
69325;SDS011;56471;53.508;49.252;2022-11-20T01:55:41;2.13;;;1.33;;
69325;SDS011;56471;53.508;49.252;2022-11-20T01:58:12;1.40;;;1.30;;
69325;SDS011;56471;53.508;49.252;2022-11-20T02:00:38;2.08;;;1.60;;
69325;SDS011;56471;53.508;49.252;2022-11-20T02:03:12;1.60;;;1.30;;
69325;SDS011;56471;53.508;49.252;2022-11-20T02:05:42;1.40;;;1.30;;
69325;SDS011;56471;53.508;49.252;2022-11-20T02:08:13;1.70;;;1.60;;
69325;SDS011;56471;53.508;49.252;2022-11-20T02:10:39;1.63;;;1.30;;
69325;SDS011;56471;53.508;49.252;2022-11-20T02:13:05;1.40;;;1.30;;
69325;SDS011;56471;53.508;49.252;2022-11-20T02:15:49;1.50;;;1.40;;
69325;SDS011;56471;53.508;49.252;2022-11-20T02:18:16;1.50;;;1.30;;
69325;SDS011;56471;53.508;49.252;2022-11-20T02:20:44;1.40;;;1.30;;
69325;SDS011;56471;53.508;49.252;2022-11-20T02:23:12;1.48;;;1.30;;
69325;SDS011;56471;53.508;49.252;2022-11-20T02:25:49;1.45;;;1.35;;
69325;SDS011;56471;53.508;49.252;2022-11-20T02:28:17;1.40;;;1.30;;
69325;SDS011;56471;53.508;49.252;2022-11-20T02:30:43;1.52;;;1.27;;
69325;SDS011;56471;53.508;49.252;2022-11-20T02:33:09;1.70;;;1.50;;
69325;SDS011;56471;53.508;49.252;2022-11-20T02:38:01;1.23;;;1.13;;
69325;SDS011;56471;53.508;49.252;2022-11-20T02:40:28;1.50;;;1.40;;
69325;SDS011;56471;53.508;49.252;2022-11-20T02:42:56;1.60;;;1.20;;
69325;SDS011;56471;53.508;49.252;2022-11-20T02:45:23;1.27;;;1.17;;
69325;SDS011;56471;53.508;49.252;2022-11-20T02:47:49;1.30;;;1.20;;
69325;SDS011;56471;53.508;49.252;2022-11-20T02:50:16;1.50;;;1.30;;
69325;SDS011;56471;53.508;49.252;2022-11-20T02:52:42;1.63;;;1.40;;
69325;SDS011;56471;53.508;49.252;2022-11-20T02:55:08;1.40;;;1.30;;
69325;SDS011;56471;53.508;49.252;2022-11-20T02:57:34;1.42;;;1.23;;
69325;SDS011;56471;53.508;49.252;2022-11-20T03:00:00;1.90;;;1.40;;
69325;SDS011;56471;53.508;49.252;2022-11-20T03:02:29;1.50;;;1.30;;
69325;SDS011;56471;53.508;49.252;2022-11-20T03:04:55;1.50;;;1.40;;
69325;SDS011;56471;53.508;49.252;2022-11-20T03:07:21;1.98;;;1.50;;
69325;SDS011;56471;53.508;49.252;2022-11-20T03:09:47;1.27;;;1.17;;
69325;SDS011;56471;53.508;49.252;2022-11-20T03:12:13;1.40;;;1.30;;
69325;SDS011;56471;53.508;49.252;2022-11-20T03:14:39;1.25;;;1.10;;
69325;SDS011;56471;53.508;49.252;2022-11-20T03:17:05;1.38;;;1.27;;
69325;SDS011;56471;53.508;49.252;2022-11-20T03:19:31;1.27;;;1.17;;
69325;SDS011;56471;53.508;49.252;2022-11-20T03:21:56;1.55;;;1.17;;
69325;SDS011;56471;53.508;49.252;2022-11-20T03:24:22;1.50;;;1.40;;
69325;SDS011;56471;53.508;49.252;2022-11-20T03:26:48;1.48;;;1.38;;
69325;SDS011;56471;53.508;49.252;2022-11-20T03:29:14;1.35;;;1.25;;
69325;SDS011;56471;53.508;49.252;2022-11-20T03:31:40;1.55;;;1.30;;
69325;SDS011;56471;53.508;49.252;2022-11-20T03:34:07;1.95;;;1.40;;
69325;SDS011;56471;53.508;49.252;2022-11-20T03:36:34;1.45;;;1.15;;
69325;SDS011;56471;53.508;49.252;2022-11-20T03:39:00;1.40;;;1.30;;
69325;SDS011;56471;53.508;49.252;2022-11-20T03:41:27;1.50;;;1.40;;
69325;SDS011;56471;53.508;49.252;2022-11-20T03:44:00;1.30;;;1.20;;
69325;SDS011;56471;53.508;49.252;2022-11-20T03:46:27;2.05;;;1.30;;
69325;SDS011;56471;53.508;49.252;2022-11-20T03:48:54;1.60;;;1.23;;
69325;SDS011;56471;53.508;49.252;2022-11-20T03:51:21;1.20;;;1.10;;
69325;SDS011;56471;53.508;49.252;2022-11-20T03:53:49;1.30;;;1.15;;
69325;SDS011;56471;53.508;49.252;2022-11-20T03:56:16;1.20;;;1.10;;
69325;SDS011;56471;53.508;49.252;2022-11-20T03:58:44;1.25;;;1.10;;
69325;SDS011;56471;53.508;49.252;2022-11-20T04:01:14;1.80;;;1.23;;
69325;SDS011;56471;53.508;49.252;2022-11-20T04:03:41;1.30;;;1.20;;
69325;SDS011;56471;53.508;49.252;2022-11-20T04:06:12;1.10;;;1.00;;
69325;SDS011;56471;53.508;49.252;2022-11-20T04:08:44;1.10;;;1.00;;
69325;SDS011;56471;53.508;49.252;2022-11-20T04:16:11;1.25;;;1.10;;
69325;SDS011;56471;53.508;49.252;2022-11-20T04:18:37;1.30;;;1.13;;
69325;SDS011;56471;53.508;49.252;2022-11-20T04:21:03;1.30;;;1.20;;
69325;SDS011;56471;53.508;49.252;2022-11-20T04:23:30;1.15;;;1.08;;
69325;SDS011;56471;53.508;49.252;2022-11-20T04:26:17;1.30;;;1.20;;
69325;SDS011;56471;53.508;49.252;2022-11-20T04:28:42;2.15;;;1.40;;
69325;SDS011;56471;53.508;49.252;2022-11-20T04:31:08;1.48;;;1.20;;
69325;SDS011;56471;53.508;49.252;2022-11-20T04:33:37;1.08;;;1.00;;
69325;SDS011;56471;53.508;49.252;2022-11-20T04:36:04;1.10;;;1.00;;
69325;SDS011;56471;53.508;49.252;2022-11-20T04:38:35;1.20;;;1.10;;
69325;SDS011;56471;53.508;49.252;2022-11-20T04:41:02;1.13;;;1.02;;
69325;SDS011;56471;53.508;49.252;2022-11-20T04:43:30;1.48;;;1.27;;
69325;SDS011;56471;53.508;49.252;2022-11-20T04:45:57;0.95;;;0.85;;
69325;SDS011;56471;53.508;49.252;2022-11-20T04:48:25;1.75;;;1.20;;
69325;SDS011;56471;53.508;49.252;2022-11-20T04:50:51;1.20;;;1.10;;
69325;SDS011;56471;53.508;49.252;2022-11-20T04:53:18;1.40;;;1.20;;
69325;SDS011;56471;53.508;49.252;2022-11-20T04:55:44;1.30;;;1.20;;
69325;SDS011;56471;53.508;49.252;2022-11-20T04:58:10;1.38;;;1.27;;
69325;SDS011;56471;53.508;49.252;2022-11-20T05:00:35;1.70;;;1.08;;
69325;SDS011;56471;53.508;49.252;2022-11-20T05:03:01;1.30;;;1.00;;
69325;SDS011;56471;53.508;49.252;2022-11-20T05:05:27;1.40;;;1.15;;
69325;SDS011;56471;53.508;49.252;2022-11-20T05:07:53;1.20;;;1.10;;
69325;SDS011;56471;53.508;49.252;2022-11-20T05:10:21;1.60;;;1.35;;
69325;SDS011;56471;53.508;49.252;2022-11-20T05:12:47;1.23;;;1.13;;
69325;SDS011;56471;53.508;49.252;2022-11-20T05:15:12;1.08;;;1.00;;
69325;SDS011;56471;53.508;49.252;2022-11-20T05:17:38;1.17;;;1.05;;
69325;SDS011;56471;53.508;49.252;2022-11-20T05:20:04;1.30;;;1.20;;
69325;SDS011;56471;53.508;49.252;2022-11-20T05:22:30;0.98;;;0.98;;
69325;SDS011;56471;53.508;49.252;2022-11-20T05:24:56;1.30;;;1.20;;
69325;SDS011;56471;53.508;49.252;2022-11-20T05:27:21;1.20;;;1.10;;
69325;SDS011;56471;53.508;49.252;2022-11-20T05:29:47;1.15;;;1.05;;
69325;SDS011;56471;53.508;49.252;2022-11-20T05:32:13;1.30;;;1.20;;
69325;SDS011;56471;53.508;49.252;2022-11-20T05:34:38;1.30;;;1.10;;
69325;SDS011;56471;53.508;49.252;2022-11-20T05:37:04;1.17;;;1.08;;
69325;SDS011;56471;53.508;49.252;2022-11-20T05:39:30;1.40;;;1.10;;
69325;SDS011;56471;53.508;49.252;2022-11-20T05:41:55;1.42;;;1.20;;
69325;SDS011;56471;53.508;49.252;2022-11-20T05:44:39;1.35;;;1.10;;
69325;SDS011;56471;53.508;49.252;2022-11-20T05:47:05;1.20;;;1.10;;
69325;SDS011;56471;53.508;49.252;2022-11-20T05:49:31;1.20;;;1.10;;
69325;SDS011;56471;53.508;49.252;2022-11-20T05:51:57;1.05;;;1.00;;
69325;SDS011;56471;53.508;49.252;2022-11-20T05:54:23;1.48;;;1.10;;
69325;SDS011;56471;53.508;49.252;2022-11-20T05:56:48;1.10;;;1.00;;
69325;SDS011;56471;53.508;49.252;2022-11-20T05:59:14;1.40;;;1.23;;
69325;SDS011;56471;53.508;49.252;2022-11-20T06:01:40;1.10;;;0.90;;
69325;SDS011;56471;53.508;49.252;2022-11-20T06:04:06;1.70;;;1.30;;
69325;SDS011;56471;53.508;49.252;2022-11-20T06:06:32;1.20;;;1.00;;
69325;SDS011;56471;53.508;49.252;2022-11-20T06:08:58;1.00;;;1.00;;
69325;SDS011;56471;53.508;49.252;2022-11-20T06:11:24;1.13;;;0.93;;
69325;SDS011;56471;53.508;49.252;2022-11-20T06:13:50;1.00;;;0.90;;
69325;SDS011;56471;53.508;49.252;2022-11-20T06:16:17;1.20;;;1.10;;
69325;SDS011;56471;53.508;49.252;2022-11-20T06:18:45;1.00;;;0.90;;
69325;SDS011;56471;53.508;49.252;2022-11-20T06:21:12;1.02;;;0.95;;
69325;SDS011;56471;53.508;49.252;2022-11-20T06:23:43;0.90;;;0.90;;
69325;SDS011;56471;53.508;49.252;2022-11-20T06:26:10;1.38;;;1.10;;
69325;SDS011;56471;53.508;49.252;2022-11-20T06:28:37;1.00;;;0.90;;
69325;SDS011;56471;53.508;49.252;2022-11-20T06:31:04;1.20;;;1.10;;
69325;SDS011;56471;53.508;49.252;2022-11-20T06:33:30;1.10;;;1.00;;
69325;SDS011;56471;53.508;49.252;2022-11-20T06:35:57;1.13;;;1.02;;
69325;SDS011;56471;53.508;49.252;2022-11-20T06:38:27;1.20;;;1.00;;
69325;SDS011;56471;53.508;49.252;2022-11-20T06:40:53;1.00;;;0.90;;
69325;SDS011;56471;53.508;49.252;2022-11-20T06:43:21;1.02;;;0.93;;
69325;SDS011;56471;53.508;49.252;2022-11-20T06:45:57;1.25;;;1.13;;
69325;SDS011;56471;53.508;49.252;2022-11-20T06:48:25;1.30;;;1.20;;
69325;SDS011;56471;53.508;49.252;2022-11-20T06:50:52;1.95;;;1.00;;
69325;SDS011;56471;53.508;49.252;2022-11-20T06:53:18;1.20;;;1.10;;
69325;SDS011;56471;53.508;49.252;2022-11-20T06:55:44;1.20;;;1.10;;
69325;SDS011;56471;53.508;49.252;2022-11-20T06:58:11;1.13;;;1.02;;
69325;SDS011;56471;53.508;49.252;2022-11-20T07:00:37;1.60;;;1.15;;
69325;SDS011;56471;53.508;49.252;2022-11-20T07:03:06;1.25;;;1.00;;
69325;SDS011;56471;53.508;49.252;2022-11-20T07:05:34;1.08;;;0.98;;
69325;SDS011;56471;53.508;49.252;2022-11-20T07:08:00;1.00;;;0.90;;
69325;SDS011;56471;53.508;49.252;2022-11-20T07:10:26;1.05;;;0.93;;
69325;SDS011;56471;53.508;49.252;2022-11-20T07:12:52;1.33;;;1.13;;
69325;SDS011;56471;53.508;49.252;2022-11-20T07:15:19;1.27;;;1.10;;
69325;SDS011;56471;53.508;49.252;2022-11-20T07:17:47;1.42;;;1.00;;
69325;SDS011;56471;53.508;49.252;2022-11-20T07:20:13;1.65;;;1.20;;
69325;SDS011;56471;53.508;49.252;2022-11-20T07:22:39;1.27;;;1.10;;
69325;SDS011;56471;53.508;49.252;2022-11-20T07:25:06;1.45;;;1.10;;
69325;SDS011;56471;53.508;49.252;2022-11-20T07:27:32;1.20;;;1.05;;
69325;SDS011;56471;53.508;49.252;2022-11-20T07:29:59;1.20;;;1.10;;
69325;SDS011;56471;53.508;49.252;2022-11-20T07:32:25;1.20;;;1.00;;
69325;SDS011;56471;53.508;49.252;2022-11-20T07:34:51;1.10;;;1.00;;
69325;SDS011;56471;53.508;49.252;2022-11-20T07:37:17;1.20;;;1.10;;
69325;SDS011;56471;53.508;49.252;2022-11-20T07:39:43;1.27;;;1.08;;
69325;SDS011;56471;53.508;49.252;2022-11-20T07:42:08;1.30;;;1.20;;
69325;SDS011;56471;53.508;49.252;2022-11-20T07:44:35;1.20;;;1.00;;
69325;SDS011;56471;53.508;49.252;2022-11-20T07:47:00;1.08;;;0.98;;
69325;SDS011;56471;53.508;49.252;2022-11-20T07:49:26;0.95;;;0.90;;
69325;SDS011;56471;53.508;49.252;2022-11-20T07:51:52;1.40;;;1.30;;
69325;SDS011;56471;53.508;49.252;2022-11-20T07:54:21;1.25;;;1.02;;
69325;SDS011;56471;53.508;49.252;2022-11-20T07:56:50;1.10;;;1.00;;
69325;SDS011;56471;53.508;49.252;2022-11-20T07:59:19;0.93;;;0.90;;
69325;SDS011;56471;53.508;49.252;2022-11-20T08:01:44;1.92;;;1.20;;
69325;SDS011;56471;53.508;49.252;2022-11-20T08:04:10;1.00;;;0.98;;
69325;SDS011;56471;53.508;49.252;2022-11-20T08:06:36;2.28;;;1.15;;
69325;SDS011;56471;53.508;49.252;2022-11-20T08:09:02;1.10;;;1.00;;
69325;SDS011;56471;53.508;49.252;2022-11-20T08:11:28;1.23;;;0.93;;
69325;SDS011;56471;53.508;49.252;2022-11-20T08:14:12;1.30;;;1.10;;
69325;SDS011;56471;53.508;49.252;2022-11-20T08:16:48;1.23;;;1.13;;
69325;SDS011;56471;53.508;49.252;2022-11-20T08:19:14;1.33;;;1.13;;
69325;SDS011;56471;53.508;49.252;2022-11-20T08:21:42;1.00;;;1.00;;
69325;SDS011;56471;53.508;49.252;2022-11-20T08:24:08;1.17;;;1.00;;
69325;SDS011;56471;53.508;49.252;2022-11-20T08:26:34;1.92;;;1.30;;
69325;SDS011;56471;53.508;49.252;2022-11-20T08:29:02;1.23;;;1.00;;
69325;SDS011;56471;53.508;49.252;2022-11-20T08:31:28;1.30;;;1.10;;
69325;SDS011;56471;53.508;49.252;2022-11-20T08:33:54;1.20;;;1.10;;
69325;SDS011;56471;53.508;49.252;2022-11-20T08:36:21;1.10;;;1.00;;
69325;SDS011;56471;53.508;49.252;2022-11-20T08:38:48;1.25;;;1.15;;
69325;SDS011;56471;53.508;49.252;2022-11-20T08:41:14;1.65;;;1.20;;
69325;SDS011;56471;53.508;49.252;2022-11-20T08:43:51;1.30;;;1.00;;
69325;SDS011;56471;53.508;49.252;2022-11-20T08:46:18;1.10;;;1.00;;
69325;SDS011;56471;53.508;49.252;2022-11-20T08:48:44;1.20;;;1.10;;
69325;SDS011;56471;53.508;49.252;2022-11-20T08:51:10;1.10;;;1.00;;
69325;SDS011;56471;53.508;49.252;2022-11-20T08:53:37;1.20;;;1.10;;
69325;SDS011;56471;53.508;49.252;2022-11-20T08:56:04;1.23;;;1.13;;
69325;SDS011;56471;53.508;49.252;2022-11-20T08:58:30;1.10;;;1.00;;
69325;SDS011;56471;53.508;49.252;2022-11-20T09:00:56;1.00;;;1.00;;
69325;SDS011;56471;53.508;49.252;2022-11-20T09:03:22;1.10;;;1.00;;
69325;SDS011;56471;53.508;49.252;2022-11-20T09:05:47;1.20;;;1.00;;
69325;SDS011;56471;53.508;49.252;2022-11-20T09:08:13;1.17;;;0.88;;
69325;SDS011;56471;53.508;49.252;2022-11-20T09:10:39;1.10;;;1.00;;
69325;SDS011;56471;53.508;49.252;2022-11-20T09:13:05;0.80;;;0.80;;
69325;SDS011;56471;53.508;49.252;2022-11-20T09:15:31;0.80;;;0.80;;
69325;SDS011;56471;53.508;49.252;2022-11-20T09:18:00;1.60;;;0.95;;
69325;SDS011;56471;53.508;49.252;2022-11-20T09:20:27;1.30;;;1.08;;
69325;SDS011;56471;53.508;49.252;2022-11-20T09:22:54;1.13;;;0.93;;
69325;SDS011;56471;53.508;49.252;2022-11-20T09:25:21;1.15;;;0.95;;
69325;SDS011;56471;53.508;49.252;2022-11-20T09:27:46;0.90;;;0.85;;
69325;SDS011;56471;53.508;49.252;2022-11-20T09:30:13;1.13;;;1.00;;
69325;SDS011;56471;53.508;49.252;2022-11-20T09:32:40;1.20;;;1.10;;
69325;SDS011;56471;53.508;49.252;2022-11-20T09:35:06;1.00;;;0.90;;
69325;SDS011;56471;53.508;49.252;2022-11-20T09:37:32;1.20;;;1.10;;
69325;SDS011;56471;53.508;49.252;2022-11-20T09:39:57;0.95;;;0.93;;
69325;SDS011;56471;53.508;49.252;2022-11-20T09:42:27;1.10;;;1.00;;
69325;SDS011;56471;53.508;49.252;2022-11-20T09:45:05;0.90;;;0.90;;
69325;SDS011;56471;53.508;49.252;2022-11-20T09:56:12;0.90;;;0.90;;
69325;SDS011;56471;53.508;49.252;2022-11-20T10:01:23;0.82;;;0.82;;
69325;SDS011;56471;53.508;49.252;2022-11-20T10:06:31;0.95;;;0.85;;
69325;SDS011;56471;53.508;49.252;2022-11-20T10:17:02;1.30;;;0.90;;
69325;SDS011;56471;53.508;49.252;2022-11-20T10:22:23;1.40;;;1.00;;
69325;SDS011;56471;53.508;49.252;2022-11-20T10:32:56;1.17;;;1.00;;
69325;SDS011;56471;53.508;49.252;2022-11-20T10:38:16;1.17;;;1.00;;
69325;SDS011;56471;53.508;49.252;2022-11-20T10:40:54;0.95;;;0.90;;
69325;SDS011;56471;53.508;49.252;2022-11-20T10:43:41;1.27;;;1.17;;
69325;SDS011;56471;53.508;49.252;2022-11-20T10:46:14;1.00;;;0.90;;
69325;SDS011;56471;53.508;49.252;2022-11-20T10:48:43;1.10;;;1.00;;
69325;SDS011;56471;53.508;49.252;2022-11-20T10:51:15;1.25;;;1.00;;
69325;SDS011;56471;53.508;49.252;2022-11-20T10:56:50;1.08;;;0.98;;
69325;SDS011;56471;53.508;49.252;2022-11-20T11:01:51;1.42;;;1.10;;
69325;SDS011;56471;53.508;49.252;2022-11-20T11:07:09;0.95;;;0.95;;
69325;SDS011;56471;53.508;49.252;2022-11-20T11:09:49;2.55;;;1.25;;
69325;SDS011;56471;53.508;49.252;2022-11-20T11:12:20;0.90;;;0.90;;
69325;SDS011;56471;53.508;49.252;2022-11-20T11:14:54;1.20;;;1.10;;
69325;SDS011;56471;53.508;49.252;2022-11-20T11:19:56;1.00;;;0.90;;
69325;SDS011;56471;53.508;49.252;2022-11-20T11:22:28;0.93;;;0.85;;
69325;SDS011;56471;53.508;49.252;2022-11-20T11:24:56;1.08;;;0.98;;
69325;SDS011;56471;53.508;49.252;2022-11-20T11:27:21;0.95;;;0.80;;
69325;SDS011;56471;53.508;49.252;2022-11-20T11:29:47;1.00;;;0.98;;
69325;SDS011;56471;53.508;49.252;2022-11-20T11:32:19;0.90;;;0.82;;
69325;SDS011;56471;53.508;49.252;2022-11-20T11:34:59;1.02;;;0.93;;
69325;SDS011;56471;53.508;49.252;2022-11-20T11:37:33;1.08;;;0.98;;
69325;SDS011;56471;53.508;49.252;2022-11-20T11:40:01;1.10;;;1.00;;
69325;SDS011;56471;53.508;49.252;2022-11-20T11:42:28;0.80;;;0.80;;
69325;SDS011;56471;53.508;49.252;2022-11-20T11:44:55;1.35;;;0.90;;
69325;SDS011;56471;53.508;49.252;2022-11-20T11:47:31;1.20;;;1.10;;
69325;SDS011;56471;53.508;49.252;2022-11-20T11:52:58;1.10;;;1.00;;
69325;SDS011;56471;53.508;49.252;2022-11-20T11:55:45;0.98;;;0.88;;
69325;SDS011;56471;53.508;49.252;2022-11-20T12:01:06;1.33;;;1.00;;
69325;SDS011;56471;53.508;49.252;2022-11-20T12:03:42;1.13;;;1.02;;
69325;SDS011;56471;53.508;49.252;2022-11-20T12:06:14;1.08;;;0.98;;
69325;SDS011;56471;53.508;49.252;2022-11-20T12:11:33;1.02;;;0.93;;
69325;SDS011;56471;53.508;49.252;2022-11-20T12:17:04;1.13;;;1.00;;
69325;SDS011;56471;53.508;49.252;2022-11-20T12:19:33;1.20;;;1.00;;
69325;SDS011;56471;53.508;49.252;2022-11-20T12:22:22;1.10;;;1.00;;
69325;SDS011;56471;53.508;49.252;2022-11-20T12:25:17;1.67;;;1.20;;
69325;SDS011;56471;53.508;49.252;2022-11-20T12:34:42;1.35;;;1.10;;
69325;SDS011;56471;53.508;49.252;2022-11-20T12:40:33;1.10;;;1.00;;
69325;SDS011;56471;53.508;49.252;2022-11-20T12:43:19;1.48;;;0.95;;
69325;SDS011;56471;53.508;49.252;2022-11-20T12:51:43;1.13;;;1.02;;
69325;SDS011;56471;53.508;49.252;2022-11-20T13:00:20;0.85;;;0.80;;
69325;SDS011;56471;53.508;49.252;2022-11-20T13:07:57;1.20;;;1.10;;
69325;SDS011;56471;53.508;49.252;2022-11-20T13:10:43;1.10;;;1.00;;
69325;SDS011;56471;53.508;49.252;2022-11-20T13:18:23;0.95;;;0.90;;
69325;SDS011;56471;53.508;49.252;2022-11-20T13:20:49;1.02;;;0.93;;
69325;SDS011;56471;53.508;49.252;2022-11-20T13:23:25;0.90;;;0.90;;
69325;SDS011;56471;53.508;49.252;2022-11-20T13:26:05;1.08;;;0.98;;
69325;SDS011;56471;53.508;49.252;2022-11-20T13:31:24;1.17;;;0.95;;
69325;SDS011;56471;53.508;49.252;2022-11-20T13:33:57;1.13;;;0.90;;
69325;SDS011;56471;53.508;49.252;2022-11-20T13:36:27;1.10;;;1.00;;
69325;SDS011;56471;53.508;49.252;2022-11-20T13:38:54;1.20;;;1.10;;
69325;SDS011;56471;53.508;49.252;2022-11-20T13:44:22;0.90;;;0.80;;
69325;SDS011;56471;53.508;49.252;2022-11-20T13:46:52;0.90;;;0.80;;
69325;SDS011;56471;53.508;49.252;2022-11-20T13:49:24;1.10;;;1.00;;
69325;SDS011;56471;53.508;49.252;2022-11-20T13:58:07;1.30;;;1.20;;
69325;SDS011;56471;53.508;49.252;2022-11-20T14:01:00;1.02;;;0.93;;
69325;SDS011;56471;53.508;49.252;2022-11-20T14:03:33;1.20;;;1.00;;
69325;SDS011;56471;53.508;49.252;2022-11-20T14:06:03;1.30;;;1.20;;
69325;SDS011;56471;53.508;49.252;2022-11-20T14:11:15;1.40;;;1.30;;
69325;SDS011;56471;53.508;49.252;2022-11-20T14:16:33;2.05;;;1.00;;
69325;SDS011;56471;53.508;49.252;2022-11-20T14:19:46;1.55;;;1.30;;
69325;SDS011;56471;53.508;49.252;2022-11-20T14:21:51;1.55;;;1.40;;
69325;SDS011;56471;53.508;49.252;2022-11-20T14:24:23;1.98;;;1.33;;
69325;SDS011;56471;53.508;49.252;2022-11-20T14:26:50;1.60;;;1.50;;
69325;SDS011;56471;53.508;49.252;2022-11-20T14:31:45;1.95;;;1.55;;
69325;SDS011;56471;53.508;49.252;2022-11-20T14:34:14;1.77;;;1.60;;
69325;SDS011;56471;53.508;49.252;2022-11-20T14:36:43;2.67;;;1.63;;
69325;SDS011;56471;53.508;49.252;2022-11-20T14:39:11;2.15;;;1.70;;
69325;SDS011;56471;53.508;49.252;2022-11-20T14:41:50;1.88;;;1.60;;
69325;SDS011;56471;53.508;49.252;2022-11-20T14:44:17;1.73;;;1.60;;
69325;SDS011;56471;53.508;49.252;2022-11-20T14:46:52;2.90;;;1.90;;
69325;SDS011;56471;53.508;49.252;2022-11-20T14:49:18;2.05;;;1.70;;
69325;SDS011;56471;53.508;49.252;2022-11-20T14:51:44;2.85;;;2.05;;
69325;SDS011;56471;53.508;49.252;2022-11-20T14:56:41;2.35;;;1.70;;
69325;SDS011;56471;53.508;49.252;2022-11-20T14:59:08;2.78;;;1.95;;
69325;SDS011;56471;53.508;49.252;2022-11-20T15:01:34;2.53;;;1.83;;
69325;SDS011;56471;53.508;49.252;2022-11-20T15:04:08;2.88;;;1.95;;
69325;SDS011;56471;53.508;49.252;2022-11-20T15:06:36;2.22;;;1.65;;
69325;SDS011;56471;53.508;49.252;2022-11-20T15:09:17;2.30;;;1.80;;
69325;SDS011;56471;53.508;49.252;2022-11-20T15:11:52;2.17;;;1.77;;
69325;SDS011;56471;53.508;49.252;2022-11-20T15:14:27;2.95;;;1.95;;
69325;SDS011;56471;53.508;49.252;2022-11-20T15:16:55;1.95;;;1.65;;
69325;SDS011;56471;53.508;49.252;2022-11-20T15:19:22;2.65;;;1.83;;
69325;SDS011;56471;53.508;49.252;2022-11-20T15:21:50;2.50;;;1.80;;
69325;SDS011;56471;53.508;49.252;2022-11-20T15:24:16;2.38;;;1.88;;
69325;SDS011;56471;53.508;49.252;2022-11-20T15:26:42;2.25;;;1.73;;
69325;SDS011;56471;53.508;49.252;2022-11-20T15:29:12;3.15;;;2.00;;
69325;SDS011;56471;53.508;49.252;2022-11-20T15:31:40;2.53;;;2.00;;
69325;SDS011;56471;53.508;49.252;2022-11-20T15:34:11;3.90;;;1.80;;
69325;SDS011;56471;53.508;49.252;2022-11-20T15:36:38;2.85;;;2.20;;
69325;SDS011;56471;53.508;49.252;2022-11-20T15:39:05;2.17;;;1.80;;
69325;SDS011;56471;53.508;49.252;2022-11-20T15:41:32;2.10;;;1.90;;
69325;SDS011;56471;53.508;49.252;2022-11-20T15:43:59;2.40;;;1.73;;
69325;SDS011;56471;53.508;49.252;2022-11-20T15:46:26;2.58;;;1.92;;
69325;SDS011;56471;53.508;49.252;2022-11-20T15:48:54;2.80;;;1.85;;
69325;SDS011;56471;53.508;49.252;2022-11-20T15:53:51;2.30;;;1.80;;
69325;SDS011;56471;53.508;49.252;2022-11-20T15:56:17;2.80;;;2.08;;
69325;SDS011;56471;53.508;49.252;2022-11-20T15:58:43;2.33;;;1.77;;
69325;SDS011;56471;53.508;49.252;2022-11-20T16:01:10;2.05;;;1.80;;
69325;SDS011;56471;53.508;49.252;2022-11-20T16:03:44;2.25;;;1.80;;
69325;SDS011;56471;53.508;49.252;2022-11-20T16:06:10;2.00;;;1.70;;
69325;SDS011;56471;53.508;49.252;2022-11-20T16:08:36;2.42;;;1.83;;
69325;SDS011;56471;53.508;49.252;2022-11-20T16:11:02;2.38;;;1.80;;
69325;SDS011;56471;53.508;49.252;2022-11-20T16:13:28;2.17;;;1.80;;
69325;SDS011;56471;53.508;49.252;2022-11-20T16:16:19;2.75;;;1.98;;
69325;SDS011;56471;53.508;49.252;2022-11-20T16:18:53;3.40;;;2.17;;
69325;SDS011;56471;53.508;49.252;2022-11-20T16:21:18;2.00;;;1.80;;
69325;SDS011;56471;53.508;49.252;2022-11-20T16:23:44;2.05;;;1.85;;
69325;SDS011;56471;53.508;49.252;2022-11-20T16:26:14;2.58;;;1.92;;
69325;SDS011;56471;53.508;49.252;2022-11-20T16:28:42;3.25;;;2.30;;
69325;SDS011;56471;53.508;49.252;2022-11-20T16:31:12;3.10;;;2.00;;
69325;SDS011;56471;53.508;49.252;2022-11-20T16:33:39;2.22;;;1.90;;
69325;SDS011;56471;53.508;49.252;2022-11-20T16:38:39;2.80;;;2.00;;
69325;SDS011;56471;53.508;49.252;2022-11-20T16:41:06;2.70;;;1.70;;
69325;SDS011;56471;53.508;49.252;2022-11-20T16:43:44;2.92;;;2.10;;
69325;SDS011;56471;53.508;49.252;2022-11-20T16:46:24;2.58;;;1.90;;
69325;SDS011;56471;53.508;49.252;2022-11-20T16:48:55;2.15;;;1.88;;
69325;SDS011;56471;53.508;49.252;2022-11-20T16:51:26;2.80;;;2.15;;